Time;durP1;ratioP1;P1;durP2;ratioP2;P2;SDS_P1;SDS_P2;PMS_P1;PMS_P2;Temp;Humidity;BMP_temperature;BMP_pressure;BME280_temperature;BME280_humidity;BME280_pressure;Samples;Min_cycle;Max_cycle;Signal;HPM_P1;HPM_P2
2024/01/11 00:00:52;;;;;;;50.58;27.70;;;;;;;-2.32;66.42;97543.47;4918781;29;20484;-75
2024/01/11 00:03:19;;;;;;;49.00;27.73;;;;;;;-2.26;66.00;97547.41;4918142;29;20083;-77
2024/01/11 00:05:47;;;;;;;50.30;27.60;;;;;;;-2.23;66.28;97536.19;4918179;29;20044;-76
2024/01/11 00:08:15;;;;;;;49.35;26.17;;;;;;;-2.20;66.66;97531.75;4918631;29;20048;-77
2024/01/11 00:10:43;;;;;;;50.25;27.58;;;;;;;-2.14;66.99;97526.34;4918584;29;20056;-76
2024/01/11 00:13:10;;;;;;;48.08;26.48;;;;;;;-2.10;67.57;97532.09;4917919;29;20052;-77
2024/01/11 00:15:39;;;;;;;49.60;26.75;;;;;;;-2.07;67.15;97537.06;4918266;29;20044;-76
2024/01/11 00:18:07;;;;;;;42.90;25.77;;;;;;;-2.11;66.17;97536.38;4931922;29;20059;-77
2024/01/11 00:20:35;;;;;;;47.78;26.52;;;;;;;-2.10;66.82;97532.94;4936845;29;20058;-77
2024/01/11 00:23:03;;;;;;;50.33;28.23;;;;;;;-2.07;66.83;97543.00;4936870;29;20475;-75
2024/01/11 00:25:30;;;;;;;53.47;28.50;;;;;;;-2.13;66.34;97538.19;4937064;29;20043;-76
2024/01/11 00:27:58;;;;;;;52.47;26.58;;;;;;;-2.18;66.42;97537.63;4937149;29;20087;-76
2024/01/11 00:30:25;;;;;;;49.08;26.60;;;;;;;-2.18;66.19;97534.25;4936766;29;20090;-76
2024/01/11 00:32:54;;;;;;;48.92;28.50;;;;;;;-2.16;66.22;97538.38;4936629;29;20058;-76
2024/01/11 00:35:22;;;;;;;49.38;27.17;;;;;;;-2.13;66.83;97532.28;4936737;29;20052;-76
2024/01/11 00:37:50;;;;;;;53.13;28.00;;;;;;;-2.15;66.34;97534.91;4936912;29;20052;-75
2024/01/11 00:40:18;;;;;;;52.97;27.42;;;;;;;-2.20;66.14;97534.31;4936924;29;20055;-76
2024/01/11 00:42:45;;;;;;;51.78;28.98;;;;;;;-2.21;66.56;97534.38;4936351;29;20083;-76
2024/01/11 00:45:13;;;;;;;49.45;28.50;;;;;;;-2.24;66.09;97540.50;4936870;29;20044;-77
2024/01/11 00:47:40;;;;;;;55.03;29.38;;;;;;;-2.35;65.63;97538.47;4936490;29;20056;-76
2024/01/11 00:50:10;;;;;;;52.42;27.73;;;;;;;-2.42;65.81;97544.00;4936412;29;20051;-76
2024/01/11 00:52:38;;;;;;;54.45;30.17;;;;;;;-2.45;65.61;97544.13;4936244;29;20475;-76
2024/01/11 00:55:06;;;;;;;54.85;28.77;;;;;;;-2.47;65.63;97543.38;4936627;29;20052;-77
2024/01/11 00:57:34;;;;;;;50.83;27.95;;;;;;;-2.53;65.72;97550.47;4935824;29;20055;-76
2024/01/11 01:00:02;;;;;;;53.08;28.20;;;;;;;-2.59;65.65;97548.22;4948954;29;20138;-77
2024/01/11 01:02:29;;;;;;;56.75;29.10;;;;;;;-2.61;66.83;97541.53;4949725;29;20079;-76
2024/01/11 01:04:57;;;;;;;47.75;27.98;;;;;;;-2.56;67.19;97554.91;4947031;28;20100;-75
2024/01/11 01:07:25;;;;;;;53.30;30.67;;;;;;;-2.57;67.02;97558.38;4954799;29;20429;-77
2024/01/11 01:09:53;;;;;;;53.45;30.27;;;;;;;-2.55;67.30;97557.38;4941691;29;20296;-77
2024/01/11 01:12:20;;;;;;;52.40;29.63;;;;;;;-2.59;66.40;97549.94;4941155;29;20131;-77
2024/01/11 01:14:48;;;;;;;55.42;28.73;;;;;;;-2.64;66.48;97557.84;4938692;29;20143;-77
2024/01/11 01:17:16;;;;;;;53.95;28.25;;;;;;;-2.66;66.57;97564.75;4929060;29;20111;-76
2024/01/11 01:19:44;;;;;;;57.10;27.98;;;;;;;-2.70;66.05;97563.25;4917229;29;20055;-77
2024/01/11 01:22:12;;;;;;;51.90;28.35;;;;;;;-2.77;65.97;97567.84;4917120;29;20048;-76
2024/01/11 01:24:41;;;;;;;49.72;28.40;;;;;;;-2.83;66.24;97572.41;4917301;29;20517;-77
2024/01/11 01:27:08;;;;;;;50.17;28.80;;;;;;;-2.83;66.78;97575.78;4916918;29;20067;-77
2024/01/11 01:29:36;;;;;;;51.55;28.88;;;;;;;-2.75;67.12;97575.44;4917305;29;20056;-76
2024/01/11 01:32:04;;;;;;;51.08;28.02;;;;;;;-2.65;67.77;97581.72;4916355;29;20111;-76
2024/01/11 01:34:32;;;;;;;47.70;27.40;;;;;;;-2.66;67.07;97584.38;4916887;29;20134;-76
2024/01/11 01:37:00;;;;;;;50.03;28.17;;;;;;;-2.72;66.23;97578.63;4916680;29;20589;-76
2024/01/11 01:39:27;;;;;;;53.00;28.13;;;;;;;-2.76;66.01;97589.09;4916643;29;20424;-77
2024/01/11 01:41:56;;;;;;;53.40;27.42;;;;;;;-2.74;67.70;97583.00;4916194;29;20103;-76
2024/01/11 01:44:23;;;;;;;45.60;26.40;;;;;;;-2.63;67.95;97585.03;4917074;29;20586;-76
2024/01/11 01:46:53;;;;;;;51.30;27.98;;;;;;;-2.59;67.24;97594.19;4916575;29;20052;-76
2024/01/11 01:49:22;;;;;;;51.17;26.30;;;;;;;-2.62;67.19;97579.03;4916684;29;20481;-75
2024/01/11 01:51:51;;;;;;;53.40;28.58;;;;;;;-2.65;66.84;97586.81;4916456;29;20143;-76
2024/01/11 01:54:19;;;;;;;53.00;26.80;;;;;;;-2.71;66.88;97579.50;4916310;29;20054;-76
2024/01/11 01:56:47;;;;;;;53.50;29.05;;;;;;;-2.77;66.54;97584.91;4916892;29;20134;-76
2024/01/11 01:59:17;;;;;;;49.55;27.15;;;;;;;-2.86;66.13;97588.72;4916507;29;20138;-77
2024/01/11 02:01:44;;;;;;;52.08;27.23;;;;;;;-2.92;66.58;97589.81;4916457;29;20504;-76
2024/01/11 02:04:12;;;;;;;50.65;27.40;;;;;;;-2.97;66.66;97591.78;4918899;29;20512;-76
2024/01/11 02:06:41;;;;;;;47.40;26.95;;;;;;;-2.97;66.93;97590.97;4916367;29;20048;-76
2024/01/11 02:09:10;;;;;;;49.92;27.73;;;;;;;-2.94;67.08;97591.63;4916286;29;20051;-76
2024/01/11 02:11:39;;;;;;;53.97;27.67;;;;;;;-2.90;67.85;97585.47;4916312;29;20464;-76
2024/01/11 02:14:07;;;;;;;47.63;26.80;;;;;;;-2.81;68.45;97593.59;4916257;29;20052;-76
2024/01/11 02:16:37;;;;;;;48.83;27.88;;;;;;;-2.75;68.68;97595.88;4917789;29;20107;-76
2024/01/11 02:19:07;;;;;;;48.85;27.23;;;;;;;-2.72;67.43;97593.97;4935499;29;20059;-76
2024/01/11 02:21:35;;;;;;;48.22;26.95;;;;;;;-2.71;67.59;97592.25;4935283;29;20150;-75
2024/01/11 02:24:06;;;;;;;49.15;26.60;;;;;;;-2.70;67.40;97593.91;4935154;29;20052;-76
2024/01/11 02:26:35;;;;;;;49.35;26.27;;;;;;;-2.74;66.80;97587.28;4935122;29;20126;-76
2024/01/11 02:29:03;;;;;;;52.20;28.10;;;;;;;-2.76;67.56;97591.63;4935207;29;20047;-77
2024/01/11 02:31:31;;;;;;;52.97;27.40;;;;;;;-2.74;68.20;97587.28;4934667;29;20054;-76
2024/01/11 02:33:59;;;;;;;53.13;27.73;;;;;;;-2.75;68.37;97580.53;4935238;29;20135;-76
2024/01/11 02:36:27;;;;;;;53.75;27.67;;;;;;;-2.77;68.02;97584.91;4934881;29;20058;-76
2024/01/11 02:38:56;;;;;;;47.65;28.10;;;;;;;-2.77;67.69;97584.91;4934905;29;20058;-76
2024/01/11 02:41:26;;;;;;;52.40;28.70;;;;;;;-2.74;68.15;97588.09;4934706;29;20492;-75
2024/01/11 02:43:55;;;;;;;49.42;27.15;;;;;;;-2.65;68.68;97583.47;4978630;23;20079;-84
2024/01/11 02:46:23;;;;;;;50.65;27.05;;;;;;;-2.61;68.01;97587.50;4964635;28;20051;-81
2024/01/11 02:48:52;;;;;;;51.42;27.08;;;;;;;-2.65;67.52;97576.63;4965059;28;20051;-83
2024/01/11 02:51:20;;;;;;;53.97;27.40;;;;;;;-2.66;67.21;97572.41;4963808;28;20058;-83
2024/01/11 02:53:47;;;;;;;49.75;28.35;;;;;;;-2.66;67.81;97569.88;4964863;28;20126;-82
2024/01/11 02:56:15;;;;;;;46.58;25.75;;;;;;;-2.65;67.28;97576.63;4964893;29;20081;-81
2024/01/11 02:58:44;;;;;;;49.72;26.08;;;;;;;-2.68;66.87;97576.78;4964591;29;20058;-81
2024/01/11 03:01:12;;;;;;;51.05;26.65;;;;;;;-2.70;66.44;97565.81;4965841;29;20404;-84
2024/01/11 03:03:39;;;;;;;44.60;26.85;;;;;;;-2.72;66.14;97575.28;4964845;29;20047;-82
2024/01/11 03:06:07;;;;;;;44.40;25.58;;;;;;;-2.75;65.76;97567.78;4969539;29;20055;-84
2024/01/11 03:08:35;;;;;;;42.55;23.70;;;;;;;-2.80;65.81;97567.16;4974877;28;20047;-82
2024/01/11 03:11:03;;;;;;;48.67;25.45;;;;;;;-2.83;65.92;97564.75;4974200;28;20078;-84
2024/01/11 03:13:32;;;;;;;46.95;24.30;;;;;;;-2.87;65.64;97566.63;4973891;29;20071;-84
2024/01/11 03:16:01;;;;;;;46.78;26.85;;;;;;;-2.87;65.81;97569.19;4967865;28;20569;-82
2024/01/11 03:18:29;;;;;;;46.88;25.15;;;;;;;-2.83;66.12;97564.75;4982687;28;20051;-82
2024/01/11 03:20:57;;;;;;;45.45;26.00;;;;;;;-2.79;66.27;97569.63;4987999;28;20491;-82
2024/01/11 03:23:25;;;;;;;47.88;25.08;;;;;;;-2.75;65.79;97568.59;4989000;28;20055;-81
2024/01/11 03:25:53;;;;;;;46.53;26.58;;;;;;;-2.77;65.48;97562.72;4987660;28;20046;-83
2024/01/11 03:28:21;;;;;;;48.53;26.88;;;;;;;-2.77;65.39;97567.03;4987241;28;20542;-82
2024/01/11 03:30:48;;;;;;;43.28;25.92;;;;;;;-2.78;65.91;97562.78;4987612;28;20503;-83
2024/01/11 03:33:17;;;;;;;43.65;24.13;;;;;;;-2.78;65.65;97563.63;4985584;28;20442;-83
2024/01/11 03:35:45;;;;;;;48.22;26.73;;;;;;;-2.78;66.46;97562.78;4957570;28;20083;-84
2024/01/11 03:38:13;;;;;;;47.63;27.08;;;;;;;-2.70;67.62;97560.69;4980237;28;20050;-82
2024/01/11 03:40:41;;;;;;;51.50;27.88;;;;;;;-2.61;68.21;97559.41;4984681;28;20094;-83
2024/01/11 03:43:09;;;;;;;53.83;30.50;;;;;;;-2.55;68.20;97552.28;4984955;28;20415;-83
2024/01/11 03:45:36;;;;;;;50.97;28.65;;;;;;;-2.59;67.56;97545.66;4986661;28;20078;-82
2024/01/11 03:48:05;;;;;;;49.58;28.00;;;;;;;-2.61;68.28;97544.91;4985774;28;20110;-83
2024/01/11 03:50:34;;;;;;;52.03;28.95;;;;;;;-2.57;68.39;97546.41;4985619;28;20138;-82
2024/01/11 03:53:03;;;;;;;57.47;29.55;;;;;;;-2.55;68.19;97552.28;4985672;28;20058;-85
2024/01/11 03:55:30;;;;;;;50.63;27.38;;;;;;;-2.60;67.28;97543.19;4986578;28;20050;-83
2024/01/11 03:57:58;;;;;;;49.70;27.08;;;;;;;-2.71;66.58;97546.28;4987594;28;20114;-82
2024/01/11 04:00:26;;;;;;;47.72;26.52;;;;;;;-2.78;67.01;97543.19;4987075;28;20076;-82
2024/01/11 04:02:53;;;;;;;52.20;28.88;;;;;;;-2.80;66.91;97545.03;4987287;28;20089;-84
2024/01/11 04:05:21;;;;;;;53.53;28.23;;;;;;;-2.88;66.21;97548.84;4987462;28;20059;-81
2024/01/11 04:07:50;;;;;;;50.63;28.17;;;;;;;-2.99;66.09;97555.28;4986835;28;20102;-82
2024/01/11 04:10:18;;;;;;;51.78;28.67;;;;;;;-3.07;66.58;97554.84;4987477;28;20110;-83
2024/01/11 04:12:46;;;;;;;52.00;29.45;;;;;;;-3.04;67.98;97548.75;4986815;28;20191;-83
2024/01/11 04:15:14;;;;;;;48.53;27.42;;;;;;;-3.00;67.21;97551.06;4987658;28;20114;-82
2024/01/11 04:17:41;;;;;;;56.95;28.88;;;;;;;-3.06;66.78;97546.28;4987669;28;20050;-83
2024/01/11 04:20:10;;;;;;;53.13;27.23;;;;;;;-3.14;66.64;97548.38;4988487;28;20082;-84
2024/01/11 04:22:38;;;;;;;53.08;27.95;;;;;;;-3.20;66.52;97548.66;4988525;28;20047;-82
2024/01/11 04:25:08;;;;;;;49.00;26.60;;;;;;;-3.24;66.80;97544.59;4988243;28;20074;-83
2024/01/11 04:27:36;;;;;;;47.78;27.17;;;;;;;-3.24;66.78;97539.50;4988767;28;20050;-84
2024/01/11 04:30:05;;;;;;;48.58;26.92;;;;;;;-3.20;67.83;97551.22;4988490;28;20511;-83
2024/01/11 04:32:32;;;;;;;48.70;27.42;;;;;;;-3.12;69.15;97565.25;4986307;28;20042;-81
2024/01/11 04:35:00;;;;;;;51.03;26.67;;;;;;;-3.03;69.29;97570.84;4988035;28;20050;-82
2024/01/11 04:37:28;;;;;;;53.38;27.48;;;;;;;-2.97;69.29;97565.44;4986575;28;20058;-84
2024/01/11 04:39:59;;;;;;;53.15;27.88;;;;;;;-2.91;68.84;97568.53;4985708;28;20114;-82
2024/01/11 04:42:29;;;;;;;47.08;27.38;;;;;;;-2.91;68.83;97565.97;4984950;28;20124;-83
2024/01/11 04:44:56;;;;;;;54.40;30.00;;;;;;;-2.87;69.61;97566.63;4984544;28;20113;-81
2024/01/11 04:47:24;;;;;;;56.13;28.90;;;;;;;-2.76;70.07;97566.91;4985609;28;20158;-82
2024/01/11 04:49:52;;;;;;;51.42;27.65;;;;;;;-2.66;70.22;97569.88;4984314;28;20051;-83
2024/01/11 04:52:19;;;;;;;50.50;27.05;;;;;;;-2.61;69.76;97565.34;4984376;28;20047;-82
2024/01/11 04:54:47;;;;;;;50.10;26.90;;;;;;;-2.59;69.83;97555.88;4984122;28;20106;-83
2024/01/11 04:57:15;;;;;;;48.03;26.38;;;;;;;-2.57;69.54;97554.06;4984592;28;20051;-82
2024/01/11 04:59:44;;;;;;;49.15;27.83;;;;;;;-2.55;69.54;97562.50;4983386;28;20078;-86
2024/01/11 05:02:12;;;;;;;51.53;27.15;;;;;;;-2.60;68.68;97549.13;4984362;28;20051;-82
2024/01/11 05:04:39;;;;;;;47.63;26.35;;;;;;;-2.74;67.58;97551.53;4984620;28;20094;-84
2024/01/11 05:07:07;;;;;;;48.97;26.27;;;;;;;-2.90;67.30;97552.28;4982987;28;20046;-84
2024/01/11 05:09:34;;;;;;;57.28;28.60;;;;;;;-2.97;67.54;97547.56;4984984;28;20574;-83
2024/01/11 05:12:02;;;;;;;44.20;26.95;;;;;;;-3.02;67.97;97537.56;4984579;28;20494;-81
2024/01/11 05:14:30;;;;;;;50.17;27.98;;;;;;;-3.01;68.91;97540.97;4985642;28;20046;-81
2024/01/11 05:17:00;;;;;;;52.78;28.42;;;;;;;-2.97;69.12;97545.84;4976724;28;20553;-81
2024/01/11 05:19:28;;;;;;;51.08;28.02;;;;;;;-2.91;69.27;97545.53;4982477;28;20145;-81
2024/01/11 05:21:56;;;;;;;52.85;28.38;;;;;;;-2.85;69.34;97558.91;4989287;28;20035;-79
2024/01/11 05:24:24;;;;;;;48.80;26.42;;;;;;;-2.81;69.25;97563.78;4999044;28;20035;-83
2024/01/11 05:26:52;;;;;;;54.63;28.17;;;;;;;-2.87;67.68;97568.34;4986370;28;20498;-84
2024/01/11 05:29:19;;;;;;;49.00;27.13;;;;;;;-3.07;66.35;97580.34;4985959;28;20473;-82
2024/01/11 05:31:47;;;;;;;48.53;26.10;;;;;;;-3.27;66.23;97583.84;4987940;28;20569;-82
2024/01/11 05:34:17;;;;;;;46.47;27.23;;;;;;;-3.42;66.28;97587.94;4988118;28;20075;-83
2024/01/11 05:36:45;;;;;;;49.42;27.23;;;;;;;-3.50;66.87;97586.63;4967639;28;20067;-83
2024/01/11 05:39:12;;;;;;;47.33;26.83;;;;;;;-3.50;67.37;97582.34;4959212;29;20058;-83
2024/01/11 05:41:40;;;;;;;51.83;26.52;;;;;;;-3.41;68.11;97578.56;4974224;28;20067;-85
2024/01/11 05:44:08;;;;;;;49.42;26.52;;;;;;;-3.32;68.67;97578.97;4973280;28;20048;-85
2024/01/11 05:46:36;;;;;;;47.20;27.27;;;;;;;-3.25;69.16;97584.59;4959021;28;20069;-84
2024/01/11 05:49:04;;;;;;;51.97;28.55;;;;;;;-3.21;69.53;97580.19;4955419;29;20090;-86
2024/01/11 05:51:33;;;;;;;53.33;28.27;;;;;;;-3.14;69.75;97584.09;4949712;29;20051;-83
2024/01/11 05:54:01;;;;;;;53.25;29.30;;;;;;;-3.06;69.48;97592.22;4949310;29;20115;-83
2024/01/11 05:56:29;;;;;;;51.33;29.20;;;;;;;-3.06;68.41;97592.22;4950754;29;20044;-82
2024/01/11 05:58:56;;;;;;;48.85;26.77;;;;;;;-3.14;67.50;97609.63;4958908;29;20055;-84
2024/01/11 06:01:24;;;;;;;51.78;27.70;;;;;;;-3.22;67.07;97609.16;4966683;29;20058;-82
2024/01/11 06:03:52;;;;;;;47.00;26.65;;;;;;;-3.34;66.87;97615.66;4971038;29;20054;-85
2024/01/11 06:06:20;;;;;;;49.90;27.48;;;;;;;-3.42;66.82;97615.19;4956834;29;20115;-82
2024/01/11 06:08:49;;;;;;;49.20;27.23;;;;;;;-3.51;66.97;97606.22;4954275;29;20546;-86
2024/01/11 06:11:18;;;;;;;52.75;27.15;;;;;;;-3.56;67.47;97601.31;4954860;29;20028;-85
2024/01/11 06:13:47;;;;;;;49.45;26.88;;;;;;;-3.54;67.67;97608.91;4950907;29;20051;-84
2024/01/11 06:16:14;;;;;;;48.20;26.42;;;;;;;-3.54;67.60;97608.91;4964234;29;20054;-85
2024/01/11 06:18:42;;;;;;;46.00;25.55;;;;;;;-3.44;68.54;97614.41;4970454;28;20055;-84
2024/01/11 06:21:10;;;;;;;49.22;27.42;;;;;;;-3.37;68.38;97624.28;4976330;28;20051;-83
2024/01/11 06:23:37;;;;;;;52.42;27.75;;;;;;;-3.35;67.49;97617.34;4991987;28;20051;-82
2024/01/11 06:26:08;;;;;;;47.75;26.45;;;;;;;-3.40;66.78;97621.84;4978784;28;20051;-85
2024/01/11 06:28:36;;;;;;;48.90;27.40;;;;;;;-3.41;67.62;97614.25;4990526;28;20043;-86
2024/01/11 06:31:04;;;;;;;49.60;27.70;;;;;;;-3.39;67.44;97615.88;4972050;28;20071;-84
2024/01/11 06:33:32;;;;;;;49.80;26.83;;;;;;;-3.37;67.53;97613.22;4972343;29;20059;-85
2024/01/11 06:36:00;;;;;;;49.03;28.65;;;;;;;-3.38;67.86;97616.69;4968771;28;20083;-84
2024/01/11 06:38:28;;;;;;;49.63;26.77;;;;;;;-3.40;67.42;97611.66;4962737;29;20055;-82
2024/01/11 06:40:56;;;;;;;47.92;26.00;;;;;;;-3.46;67.43;97606.00;4957958;29;20058;-83
2024/01/11 06:43:25;;;;;;;49.97;28.33;;;;;;;-3.47;68.05;97602.63;4971696;28;20047;-86
2024/01/11 06:45:53;;;;;;;48.72;25.48;;;;;;;-3.48;68.00;97610.34;4963940;29;20072;-86
2024/01/11 06:48:20;;;;;;;63.45;34.65;;;;;;;-3.52;67.05;97605.41;4953809;29;20052;-83
2024/01/11 06:50:49;;;;;;;56.47;31.88;;;;;;;-3.59;67.33;97608.28;4967140;29;20047;-87
2024/01/11 06:53:17;;;;;;;52.08;29.48;;;;;;;-3.55;67.85;97615.72;4975594;28;20130;-85
2024/01/11 06:55:47;;;;;;;56.92;28.85;;;;;;;-3.53;67.52;97621.59;4975470;29;20062;-86
2024/01/11 06:58:17;;;;;;;53.63;28.98;;;;;;;-3.54;66.86;97625.03;4959667;29;20051;-87
2024/01/11 07:00:46;;;;;;;56.47;28.58;;;;;;;-3.55;67.35;97630.19;4957698;29;20043;-80
2024/01/11 07:03:14;;;;;;;50.13;29.25;;;;;;;-3.50;67.67;97632.53;4958706;29;20043;-85
2024/01/11 07:05:42;;;;;;;52.92;28.55;;;;;;;-3.47;67.21;97632.41;4976964;29;20051;-87
2024/01/11 07:08:11;;;;;;;52.53;28.60;;;;;;;-3.51;66.46;97634.28;4968365;28;20079;-88
2024/01/11 07:16:55;;;;;;;51.83;27.95;;;;;;;-3.45;68.67;97645.94;4959505;29;20079;-87
2024/01/11 07:19:45;;;;;;;49.70;27.30;;;;;;;-3.41;67.69;97643.19;4960217;29;20044;-86
2024/01/11 07:22:38;;;;;;;;;;;;;;;-3.46;66.37;97649.38;4969443;29;20066;-85
2024/01/11 07:25:12;;;;;;;49.38;27.58;;;;;;;-3.59;66.72;97644.81;4969324;29;19933;-88
2024/01/11 07:27:41;;;;;;;49.20;26.98;;;;;;;-3.65;66.70;97655.31;4973012;29;20526;-86
2024/01/11 07:30:14;;;;;;;51.88;28.05;;;;;;;-3.67;66.37;97658.78;4969887;28;20042;-86
2024/01/11 07:32:48;;;;;;;55.35;29.50;;;;;;;-3.71;66.36;97655.56;4962003;29;20138;-85
2024/01/11 07:35:38;;;;;;;54.75;29.08;;;;;;;-3.68;67.08;97657.97;4975831;28;20059;-87
2024/01/11 07:38:15;;;;;;;53.70;28.05;;;;;;;-3.63;67.00;97658.63;4956034;29;20055;-85
2024/01/11 07:40:47;;;;;;;53.00;28.67;;;;;;;-3.64;67.35;97661.22;4954872;29;20051;-86
2024/01/11 07:46:16;;;;;;;57.70;31.55;;;;;;;-3.62;66.62;97678.09;4972917;29;20059;-85
2024/01/11 07:48:50;;;;;;;55.03;29.70;;;;;;;-3.66;65.97;97679.13;4975282;28;20052;-85
2024/01/11 07:51:26;;;;;;;54.38;30.23;;;;;;;-3.75;66.35;97672.72;4975255;29;20118;-87
2024/01/11 07:57:23;;;;;;;53.45;30.33;;;;;;;-3.76;66.63;97688.06;4971046;28;20110;-87
2024/01/11 08:06:33;;;;;;;57.03;29.70;;;;;;;-3.91;68.02;97691.28;4957684;29;20059;-86
2024/01/11 08:09:19;;;;;;;55.75;30.02;;;;;;;-3.83;67.11;97692.59;4951631;29;20111;-88
2024/01/11 08:23:48;;;;;;;55.55;30.42;;;;;;;-3.37;69.35;97715.28;4971626;29;20085;-88
2024/01/11 08:29:37;;;;;;;55.92;30.30;;;;;;;-3.45;66.93;97710.53;4970971;29;20586;-86
2024/01/11 08:38:15;;;;;;;56.28;30.05;;;;;;;-3.26;67.48;97717.34;4991494;28;20086;-86
2024/01/11 09:13:40;;;;;;;57.40;32.63;;;;;;;-3.21;66.75;97715.44;4969939;28;20058;-86
2024/01/11 09:28:09;;;;;;;61.85;34.97;;;;;;;-3.07;66.97;97741.16;4980212;28;20051;-86
2024/01/11 09:30:47;;;;;;;62.90;32.80;;;;;;;-3.07;66.72;97725.84;4986200;28;20594;-86
2024/01/11 09:45:15;;;;;;;57.40;31.70;;;;;;;-2.72;66.82;97725.94;4980041;28;20534;-86
2024/01/11 09:48:05;;;;;;;62.65;33.13;;;;;;;-2.62;66.77;97724.63;5000328;28;20090;-86
2024/01/11 09:53:38;;;;;;;50.67;30.17;;;;;;;-2.43;66.29;97732.22;5004540;28;20521;-86
2024/01/11 09:56:39;;;;;;;57.03;30.05;;;;;;;-2.31;66.08;97731.66;4999862;28;20051;-85
2024/01/11 09:59:30;;;;;;;55.38;30.00;;;;;;;-2.16;66.15;97730.09;4985314;28;20051;-85
2024/01/11 10:02:45;;;;;;;54.28;29.25;;;;;;;-2.03;66.26;97726.91;4966870;28;20415;-85
2024/01/11 10:06:01;;;;;;;58.08;29.30;;;;;;;-1.85;66.99;97710.66;4965205;28;20077;-86
2024/01/11 10:11:44;;;;;;;50.25;28.83;;;;;;;-1.45;66.81;97698.38;4980121;28;20051;-87
2024/01/11 10:24:26;;;;;;;52.20;29.60;;;;;;;-0.95;65.28;97686.38;4968523;28;20070;-85
2024/01/11 10:33:25;;;;;;;57.30;31.00;;;;;;;-0.46;65.85;97688.75;4953819;29;20058;-86
2024/01/11 11:04:57;;;;;;;48.22;28.90;;;;;;;1.14;61.43;97690.41;4966420;29;20055;-84
2024/01/11 17:09:06;;;;;;;48.38;27.05;;;;;;;0.13;58.88;97742.69;4997189;28;20043;-82
2024/01/11 17:11:39;;;;;;;45.33;29.90;;;;;;;0.10;59.20;97748.00;4998792;28;20073;-82
2024/01/11 17:14:07;;;;;;;51.22;30.27;;;;;;;0.09;59.01;97752.31;4980690;28;20043;-82
2024/01/11 17:16:35;;;;;;;51.45;29.52;;;;;;;0.10;59.09;97760.84;4973600;28;20042;-83
2024/01/11 17:19:04;;;;;;;51.50;29.13;;;;;;;0.08;59.38;97753.22;4980581;28;20070;-81
2024/01/11 17:21:33;;;;;;;45.08;27.98;;;;;;;0.10;60.55;97748.84;4980698;28;20058;-83
2024/01/11 17:24:04;;;;;;;48.45;28.40;;;;;;;0.15;60.82;97730.59;4980749;28;20074;-82
2024/01/11 17:31:49;;;;;;;54.78;29.95;;;;;;;0.06;59.32;97752.47;4960354;28;20067;-81
2024/01/11 17:34:19;;;;;;;53.97;29.50;;;;;;;-0.02;59.46;97741.84;5039942;23;20216;-80
2024/01/11 17:36:47;;;;;;;57.95;31.30;;;;;;;-0.08;59.83;97749.91;4965069;29;20596;-80
2024/01/11 17:39:15;;;;;;;50.47;28.80;;;;;;;-0.14;59.66;97755.38;4965669;28;20063;-82
2024/01/11 17:41:43;;;;;;;51.70;28.88;;;;;;;-0.21;59.36;97752.31;4969402;29;20051;-85
2024/01/11 17:44:10;;;;;;;53.33;28.08;;;;;;;-0.31;59.55;97751.19;4968097;28;20154;-83
2024/01/11 17:46:38;;;;;;;53.30;31.73;;;;;;;-0.39;59.65;97750.78;4970231;28;20053;-83
2024/01/11 17:49:08;;;;;;;50.95;29.75;;;;;;;-0.43;60.22;97752.69;4969391;28;20118;-83
2024/01/11 17:51:36;;;;;;;56.67;31.35;;;;;;;-0.44;60.04;97753.59;4968933;29;20499;-83
2024/01/11 17:54:04;;;;;;;57.95;32.35;;;;;;;-0.45;60.31;97757.91;4970585;28;20078;-84
2024/01/11 17:56:32;;;;;;;56.67;32.25;;;;;;;-0.46;59.92;97756.25;4954042;29;20056;-84
2024/01/11 17:59:00;;;;;;;60.25;33.95;;;;;;;-0.50;60.00;97753.94;4972839;29;20075;-84
2024/01/11 18:01:29;;;;;;;58.90;33.97;;;;;;;-0.56;60.27;97755.09;4969883;28;20110;-84
2024/01/11 18:03:57;;;;;;;60.30;36.17;;;;;;;-0.61;60.48;97759.66;4972167;28;20098;-84
2024/01/11 18:06:26;;;;;;;59.58;33.58;;;;;;;-0.65;60.31;97771.00;4972677;28;20078;-84
2024/01/11 18:08:54;;;;;;;55.08;30.00;;;;;;;-0.67;60.63;97783.88;4971181;28;20054;-86
2024/01/11 18:11:22;;;;;;;53.38;31.35;;;;;;;-0.69;60.76;97784.88;4969542;28;20048;-85
2024/01/11 18:13:50;;;;;;;54.90;31.90;;;;;;;-0.67;61.49;97783.06;4970683;28;20050;-84
2024/01/11 18:16:19;;;;;;;56.58;30.85;;;;;;;-0.59;62.17;97782.63;4969008;28;20119;-85
2024/01/11 18:18:48;;;;;;;48.90;29.85;;;;;;;-0.55;61.69;97786.69;4966150;28;20047;-86
2024/01/11 18:21:16;;;;;;;50.40;30.05;;;;;;;-0.63;61.05;97790.50;4952517;29;20067;-85
2024/01/11 18:23:45;;;;;;;56.75;32.60;;;;;;;-0.72;61.03;97782.44;4952053;29;20075;-86
2024/01/11 18:26:13;;;;;;;68.07;36.45;;;;;;;-0.77;61.08;97781.88;4951225;29;20043;-85
2024/01/11 18:28:41;;;;;;;64.47;33.72;;;;;;;-0.80;61.52;97772.63;4953752;29;20086;-83
2024/01/11 18:31:14;;;;;;;60.08;32.33;;;;;;;-0.77;62.48;97776.75;4968570;28;20058;-88
2024/01/11 18:33:43;;;;;;;49.45;27.23;;;;;;;-0.76;61.21;97775.88;4970934;29;20067;-87
2024/01/11 18:36:11;;;;;;;49.03;29.10;;;;;;;-0.82;60.92;97771.88;4972878;28;20055;-88
2024/01/11 18:38:39;;;;;;;53.90;28.63;;;;;;;-0.86;60.85;97778.06;4978598;28;20027;-84
2024/01/11 18:41:08;;;;;;;56.25;30.95;;;;;;;-0.93;60.99;97772.44;4971017;29;20061;-85
2024/01/11 18:43:36;;;;;;;50.60;28.85;;;;;;;-0.96;61.01;97774.34;4971922;28;20055;-88
2024/01/11 18:46:04;;;;;;;52.15;29.60;;;;;;;-1.01;61.07;97776.31;4971780;28;20400;-86
2024/01/11 18:48:32;;;;;;;52.00;30.98;;;;;;;-1.04;61.23;97774.75;4969665;29;20051;-84
2024/01/11 18:51:03;;;;;;;61.85;32.75;;;;;;;-1.07;61.24;97772.38;4960744;29;20547;-84
2024/01/11 18:53:40;;;;;;;55.45;30.23;;;;;;;-1.11;61.40;97770.88;4954480;29;20130;-85
2024/01/11 18:56:20;;;;;;;52.95;30.02;;;;;;;-1.11;61.78;97770.88;4968180;29;20466;-86
2024/01/11 18:58:50;;;;;;;56.58;31.98;;;;;;;-1.12;61.71;97779.44;4970699;29;20061;-86
2024/01/11 19:01:18;;;;;;;54.72;31.38;;;;;;;-1.19;61.45;97781.50;4971434;28;20074;-84
2024/01/11 19:03:46;;;;;;;51.65;30.38;;;;;;;-1.22;61.30;97780.81;4973955;28;20047;-85
2024/01/11 19:06:16;;;;;;;53.05;31.23;;;;;;;-1.26;61.82;97775.06;4971469;28;20134;-86
2024/01/11 19:08:47;;;;;;;50.33;30.90;;;;;;;-1.26;61.98;97773.31;4968846;29;20047;-87
2024/01/11 19:11:34;;;;;;;52.22;29.88;;;;;;;-1.20;62.60;97771.31;4973584;28;20058;-83
2024/01/11 19:14:09;;;;;;;54.08;30.73;;;;;;;-1.17;62.13;97773.75;4971312;28;20351;-87
2024/01/11 19:16:38;;;;;;;65.30;36.67;;;;;;;-1.19;62.02;97775.56;4972520;29;20071;-85
2024/01/11 19:19:06;;;;;;;71.90;39.90;;;;;;;-1.25;62.50;97781.81;4969617;28;20071;-85
2024/01/11 19:21:37;;;;;;;61.15;33.35;;;;;;;-1.30;62.73;97782.06;4967506;29;20051;-84
2024/01/11 19:24:06;;;;;;;56.22;30.95;;;;;;;-1.32;62.72;97786.41;4966580;28;20070;-84
2024/01/11 19:26:40;;;;;;;52.80;29.23;;;;;;;-1.33;63.07;97787.34;4958297;28;20116;-88
2024/01/11 19:29:09;;;;;;;53.75;31.73;;;;;;;-1.34;62.60;97788.22;4977816;29;20055;-87
2024/01/11 19:31:40;;;;;;;55.67;29.75;;;;;;;-1.38;62.51;97786.72;4979511;28;20033;-92
2024/01/11 19:34:18;;;;;;;54.42;30.85;;;;;;;-1.42;62.49;97792.94;4973745;29;20039;-92
2024/01/11 19:36:46;;;;;;;51.65;30.50;;;;;;;-1.39;63.38;97792.78;4975374;23;20519;-82
2024/01/11 19:39:14;;;;;;;52.13;29.95;;;;;;;-1.30;64.05;97789.72;4960548;29;20059;-82
2024/01/11 19:41:43;;;;;;;51.28;29.75;;;;;;;-1.23;64.58;97790.25;4961197;29;20054;-85
2024/01/11 19:44:11;;;;;;;52.58;30.48;;;;;;;-1.25;63.87;97785.22;4960820;29;20049;-83
2024/01/11 19:46:40;;;;;;;49.67;30.65;;;;;;;-1.32;63.70;97783.88;4960544;28;20051;-83
2024/01/11 19:49:09;;;;;;;67.75;35.58;;;;;;;-1.38;63.44;97784.16;4960770;28;20067;-81
2024/01/11 19:51:36;;;;;;;65.63;37.08;;;;;;;-1.41;62.63;97776.66;4960428;29;20048;-80
2024/01/11 19:54:04;;;;;;;67.35;36.17;;;;;;;-1.47;63.36;97776.97;4960451;29;20051;-83
2024/01/11 19:56:32;;;;;;;59.45;34.90;;;;;;;-1.49;63.31;97783.88;4960485;28;20078;-80
2024/01/11 19:59:03;;;;;;;63.03;35.00;;;;;;;-1.55;63.81;97784.19;4960679;29;20138;-82
2024/01/11 20:01:30;;;;;;;60.00;33.22;;;;;;;-1.57;64.18;97786.03;4959834;28;20055;-80
2024/01/11 20:03:59;;;;;;;63.60;33.83;;;;;;;-1.59;64.27;97796.34;4959931;29;20401;-81